Time;durP1;ratioP1;P1;durP2;ratioP2;P2;SDS_P1;SDS_P2;PMS_P1;PMS_P2;Temp;Humidity;BMP_temperature;BMP_pressure;BME280_temperature;BME280_humidity;BME280_pressure;Samples;Min_cycle;Max_cycle;Signal;HPM_P1;HPM_P2
2023/12/15 00:00:33;;;;;;;49.10;25.27;;;6.10;99.90;;;;;;4991731;28;20037;-57
2023/12/15 00:02:59;;;;;;;50.33;25.05;;;6.10;99.90;;;;;;4997354;28;20045;-56
2023/12/15 00:05:24;;;;;;;54.55;25.85;;;6.30;99.90;;;;;;4990168;28;20038;-54
2023/12/15 00:07:50;;;;;;;48.90;24.58;;;6.40;99.90;;;;;;4992856;28;20414;-54
2023/12/15 00:10:15;;;;;;;50.63;26.70;;;6.30;99.90;;;;;;4994762;28;20038;-55
2023/12/15 00:12:42;;;;;;;54.53;26.30;;;6.50;99.90;;;;;;4996984;28;20033;-54
2023/12/15 00:15:08;;;;;;;56.33;26.40;;;6.60;99.90;;;;;;4994689;28;20421;-55
2023/12/15 00:17:33;;;;;;;56.80;27.08;;;6.70;99.90;;;;;;4990259;28;20039;-55
2023/12/15 00:19:59;;;;;;;56.42;27.35;;;6.80;99.90;;;;;;4991320;28;20394;-55
2023/12/15 00:22:24;;;;;;;54.85;28.30;;;6.80;99.90;;;;;;4990419;28;20038;-55
2023/12/15 00:24:50;;;;;;;50.92;26.25;;;6.80;99.90;;;;;;4992744;28;20144;-55
2023/12/15 00:27:15;;;;;;;52.72;27.30;;;6.90;99.90;;;;;;4990578;28;20125;-54
2023/12/15 00:29:41;;;;;;;51.17;27.23;;;6.70;99.90;;;;;;4997342;28;20038;-56
2023/12/15 00:32:07;;;;;;;52.53;27.60;;;6.70;99.90;;;;;;5003163;28;20030;-55
2023/12/15 00:34:32;;;;;;;58.80;28.45;;;6.80;99.90;;;;;;4995380;28;20037;-56
2023/12/15 00:36:58;;;;;;;53.53;27.25;;;6.80;99.90;;;;;;4998231;28;20101;-56
2023/12/15 00:39:23;;;;;;;52.47;27.23;;;6.90;99.90;;;;;;4995219;28;20046;-56
2023/12/15 00:41:49;;;;;;;56.90;26.85;;;6.90;99.90;;;;;;5001574;28;20367;-56
2023/12/15 00:44:14;;;;;;;54.65;26.58;;;7.00;99.90;;;;;;4992930;28;20042;-56
2023/12/15 00:46:40;;;;;;;56.58;27.48;;;7.10;99.90;;;;;;4997717;28;20427;-56
2023/12/15 00:49:06;;;;;;;52.03;26.48;;;7.00;99.90;;;;;;4997882;28;20194;-54
2023/12/15 00:51:32;;;;;;;56.75;25.70;;;7.00;99.90;;;;;;4998927;28;20076;-56
2023/12/15 00:53:57;;;;;;;51.63;25.73;;;7.10;99.90;;;;;;4997406;28;20151;-55
2023/12/15 00:56:23;;;;;;;54.53;25.02;;;7.00;99.90;;;;;;4994330;28;20033;-57
2023/12/15 00:58:48;;;;;;;52.78;25.10;;;7.00;99.90;;;;;;4992905;28;20177;-54
2023/12/15 01:01:14;;;;;;;51.55;24.25;;;6.90;99.90;;;;;;4995345;28;20085;-56
2023/12/15 01:03:39;;;;;;;49.17;25.75;;;6.90;99.90;;;;;;4996671;28;20050;-54
2023/12/15 01:06:05;;;;;;;51.13;24.30;;;7.10;99.90;;;;;;4990646;28;20037;-56
2023/12/15 01:08:31;;;;;;;50.50;25.13;;;7.00;99.90;;;;;;4997148;28;20347;-54
2023/12/15 01:10:56;;;;;;;44.58;24.02;;;7.10;99.90;;;;;;4992882;28;20042;-56
2023/12/15 01:13:22;;;;;;;49.80;24.83;;;7.10;99.90;;;;;;4996729;28;20278;-54
2023/12/15 01:15:47;;;;;;;46.53;23.25;;;7.10;99.90;;;;;;4994938;28;20433;-57
2023/12/15 01:18:13;;;;;;;47.85;23.77;;;7.00;99.90;;;;;;4994667;28;20555;-56
2023/12/15 01:20:38;;;;;;;53.60;25.63;;;6.90;99.90;;;;;;4999450;28;20354;-56
2023/12/15 01:23:05;;;;;;;48.60;24.95;;;7.00;99.90;;;;;;4995688;28;20719;-54
2023/12/15 01:25:30;;;;;;;48.03;24.65;;;7.00;99.90;;;;;;4991992;28;20240;-56
2023/12/15 01:27:56;;;;;;;48.25;25.10;;;7.10;99.90;;;;;;4993812;28;20572;-56
2023/12/15 01:30:21;;;;;;;43.80;23.95;;;7.00;99.90;;;;;;4997272;28;20448;-55
2023/12/15 01:32:47;;;;;;;45.28;24.10;;;7.00;99.90;;;;;;4995668;28;20426;-56
2023/12/15 01:35:13;;;;;;;51.10;24.20;;;7.10;99.90;;;;;;4993952;28;20027;-56
2023/12/15 01:37:38;;;;;;;49.90;24.35;;;7.00;99.90;;;;;;4998011;28;20064;-56
2023/12/15 01:40:04;;;;;;;45.00;23.52;;;7.10;99.90;;;;;;4997501;28;20038;-55
2023/12/15 01:42:30;;;;;;;49.13;24.15;;;7.00;99.90;;;;;;4999034;28;21775;-56
2023/12/15 01:44:55;;;;;;;44.25;23.08;;;7.10;99.90;;;;;;5000358;28;20191;-55
2023/12/15 01:47:24;;;;;;;48.10;23.50;;;7.10;99.90;;;;;;4996791;28;20044;-55
2023/12/15 01:49:50;;;;;;;48.38;23.15;;;7.20;99.90;;;;;;4996380;28;20604;-55
2023/12/15 01:52:16;;;;;;;47.38;22.73;;;7.20;99.90;;;;;;4994876;28;20041;-55
2023/12/15 01:54:42;;;;;;;41.65;22.42;;;7.10;99.90;;;;;;4999498;28;20034;-56
2023/12/15 01:57:08;;;;;;;42.42;23.00;;;7.10;99.90;;;;;;4993374;28;20084;-56
2023/12/15 01:59:43;;;;;;;46.60;22.23;;;7.20;99.90;;;;;;4991770;28;20029;-55
2023/12/15 02:02:09;;;;;;;41.13;23.02;;;7.20;99.90;;;;;;4994898;28;20081;-55
2023/12/15 02:04:35;;;;;;;42.13;21.48;;;7.10;99.90;;;;;;4998443;28;20045;-54
2023/12/15 02:07:01;;;;;;;43.70;22.65;;;7.20;99.90;;;;;;4995068;28;20034;-56
2023/12/15 02:09:26;;;;;;;43.10;23.20;;;7.20;99.90;;;;;;4995595;28;20041;-56
2023/12/15 02:11:52;;;;;;;39.47;21.42;;;7.30;99.90;;;;;;4995965;28;20092;-57
2023/12/15 02:14:18;;;;;;;41.65;22.10;;;7.20;99.90;;;;;;4993961;28;20151;-58
2023/12/15 02:16:43;;;;;;;38.30;21.85;;;7.00;99.90;;;;;;4995685;28;20061;-57
2023/12/15 02:19:09;;;;;;;41.40;20.33;;;7.10;99.90;;;;;;4994555;28;20107;-58
2023/12/15 02:21:34;;;;;;;51.67;22.60;;;7.20;99.90;;;;;;4988882;28;20334;-58
2023/12/15 02:24:00;;;;;;;47.65;23.40;;;7.10;99.90;;;;;;4992776;28;20070;-57
2023/12/15 02:26:26;;;;;;;41.47;23.48;;;7.10;99.90;;;;;;4993853;28;20088;-58
2023/12/15 02:28:51;;;;;;;42.78;22.35;;;7.10;99.90;;;;;;4990446;28;20141;-58
2023/12/15 02:31:21;;;;;;;44.70;22.73;;;7.20;99.90;;;;;;4999357;28;20092;-58
2023/12/15 02:33:46;;;;;;;50.50;24.92;;;7.20;99.90;;;;;;4991710;28;20413;-57
2023/12/15 02:36:19;;;;;;;54.47;25.83;;;7.30;99.90;;;;;;4992454;28;20113;-58
2023/12/15 02:38:45;;;;;;;48.63;25.33;;;7.20;99.90;;;;;;4993787;28;20042;-56
2023/12/15 02:41:11;;;;;;;51.03;25.23;;;7.00;99.90;;;;;;4994023;28;20081;-58
2023/12/15 02:43:37;;;;;;;47.38;25.02;;;7.10;99.90;;;;;;4996035;28;20104;-58
2023/12/15 02:46:02;;;;;;;48.58;25.52;;;6.90;99.90;;;;;;4997021;28;20482;-58
2023/12/15 02:48:28;;;;;;;52.78;26.38;;;6.90;99.90;;;;;;4997070;28;20049;-58
2023/12/15 02:50:54;;;;;;;48.20;24.77;;;6.90;99.90;;;;;;4995235;28;20120;-58
2023/12/15 02:53:19;;;;;;;56.70;25.05;;;7.00;99.90;;;;;;4993318;28;20057;-57
2023/12/15 02:55:45;;;;;;;57.15;24.15;;;6.90;99.90;;;;;;4996489;28;20030;-57
2023/12/15 02:58:11;;;;;;;50.22;25.20;;;;;;;;;;4997434;28;20120;-58
2023/12/15 03:00:37;;;;;;;54.58;24.85;;;6.80;99.90;;;;;;5000036;28;20038;-55
2023/12/15 03:03:03;;;;;;;48.70;23.92;;;;;;;;;;4990143;28;20034;-58
2023/12/15 03:05:29;;;;;;;57.75;25.35;;;;;;;;;;4990161;28;20037;-57
2023/12/15 03:07:55;;;;;;;52.03;23.17;;;;;;;;;;4993090;28;20068;-58
2023/12/15 03:10:21;;;;;;;55.55;26.60;;;;;;;;;;4997158;28;21359;-58
2023/12/15 03:12:47;;;;;;;55.63;25.35;;;;;;;;;;4997979;28;20253;-57
2023/12/15 03:15:13;;;;;;;53.95;24.52;;;;;;;;;;4993959;28;20052;-58
2023/12/15 03:17:39;;;;;;;60.03;24.75;;;;;;;;;;4993532;28;20111;-58
2023/12/15 03:20:06;;;;;;;47.00;24.67;;;;;;;;;;4996736;28;20038;-58
2023/12/15 03:22:32;;;;;;;52.08;24.98;;;;;;;;;;4994975;28;20192;-56
2023/12/15 03:24:58;;;;;;;53.47;25.23;;;;;;;;;;4998064;28;20119;-55
2023/12/15 03:27:24;;;;;;;50.92;23.80;;;;;;;;;;4989738;28;20383;-55
2023/12/15 03:29:50;;;;;;;53.13;24.38;;;;;;;;;;4995202;28;20064;-56
2023/12/15 03:32:17;;;;;;;49.90;24.48;;;;;;;;;;4993390;28;20037;-53
2023/12/15 03:34:43;;;;;;;52.85;22.52;;;;;;;;;;4997803;28;20038;-55
2023/12/15 03:37:08;;;;;;;53.92;23.90;;;;;;;;;;4994333;28;20034;-56
2023/12/15 03:39:35;;;;;;;53.95;24.63;;;;;;;;;;4998709;28;20053;-56
2023/12/15 03:42:06;;;;;;;47.33;22.63;;;;;;;;;;4997842;28;20445;-54
2023/12/15 03:44:32;;;;;;;60.53;25.45;;;;;;;;;;4998792;28;20034;-56
2023/12/15 03:46:58;;;;;;;50.60;24.05;;;;;;;;;;4996052;28;20364;-55
2023/12/15 03:49:24;;;;;;;30.23;13.57;;;;;;;;;;4994061;28;20079;-55
2023/12/15 03:51:50;;;;;;;0.00;0.00;;;;;;;;;;4994468;28;20060;-55
2023/12/15 03:54:16;;;;;;;0.00;0.00;;;;;;;;;;4994569;28;20033;-55
2023/12/15 03:56:41;;;;;;;0.00;0.00;;;;;;;;;;4996537;28;20061;-55
2023/12/15 03:59:07;;;;;;;0.00;0.00;;;;;;;;;;4998529;28;20038;-55
2023/12/15 04:01:33;;;;;;;0.00;0.00;;;;;;;;;;5000432;28;20066;-54
2023/12/15 04:03:59;;;;;;;0.00;0.00;;;;;;;;;;4999896;28;20030;-57
2023/12/15 04:06:25;;;;;;;25.27;11.30;;;;;;;;;;4999330;28;20026;-57
2023/12/15 04:08:51;;;;;;;58.45;26.58;;;;;;;;;;4994718;28;20042;-58
2023/12/15 04:11:17;;;;;;;59.88;27.35;;;;;;;;;;4997580;28;20452;-58
2023/12/15 04:13:43;;;;;;;24.65;11.40;;;;;;;;;;4999899;28;20046;-58
2023/12/15 04:16:09;;;;;;;0.00;0.00;;;;;;;;;;4992920;28;20038;-56
2023/12/15 04:18:35;;;;;;;0.00;0.00;;;;;;;;;;5001672;28;20072;-58
2023/12/15 04:21:04;;;;;;;65.07;29.05;;;;;;;;;;4996107;28;20065;-57
2023/12/15 04:23:31;;;;;;;62.40;29.70;;;;;;;;;;4997293;28;20121;-56
2023/12/15 04:25:58;;;;;;;68.90;28.48;;;;;;;;;;4997451;28;20068;-58
2023/12/15 04:28:25;;;;;;;67.85;29.58;;;;;;;;;;4991804;28;20668;-58
2023/12/15 04:30:51;;;;;;;62.90;30.02;;;;;;;;;;4993465;28;20299;-58
2023/12/15 04:33:17;;;;;;;60.42;28.58;;;;;;;;;;4999119;28;20354;-58
2023/12/15 04:35:43;;;;;;;60.72;29.88;;;;;;;;;;4994156;28;20409;-57
2023/12/15 04:38:09;;;;;;;67.05;29.30;;;;;;;;;;4991966;28;20049;-58
2023/12/15 04:40:35;;;;;;;65.15;29.55;;;;;;;;;;4995228;28;20034;-58
2023/12/15 04:43:01;;;;;;;57.78;29.50;;;;;;;;;;4995680;28;20052;-58
2023/12/15 04:45:27;;;;;;;47.75;22.77;;;;;;;;;;4994475;28;20041;-56
2023/12/15 04:47:54;;;;;;;0.00;0.00;;;;;;;;;;4996744;28;20052;-58
2023/12/15 04:50:20;;;;;;;0.00;0.00;;;;;;;;;;4993976;28;20048;-57
2023/12/15 04:52:46;;;;;;;0.00;0.00;;;;;;;;;;4994534;28;20034;-58
2023/12/15 04:55:12;;;;;;;0.00;0.00;;;;;;;;;;4994764;28;20044;-58
2023/12/15 04:57:38;;;;;;;0.00;0.00;;;;;;;;;;4996157;28;20044;-57
2023/12/15 05:00:05;;;;;;;12.35;6.20;;;;;;;;;;4999163;28;20306;-58
2023/12/15 05:02:31;;;;;;;74.97;33.85;;;;;;;;;;4999602;28;20117;-56
2023/12/15 05:04:57;;;;;;;73.78;33.05;;;;;;;;;;4994568;28;20129;-58
2023/12/15 05:07:23;;;;;;;72.13;33.78;;;;;;;;;;4995226;28;20065;-58
2023/12/15 05:09:49;;;;;;;78.88;32.33;;;;;;;;;;4994449;28;20038;-57
2023/12/15 05:12:15;;;;;;;74.53;32.65;;;;;;;;;;4997249;28;20076;-57
2023/12/15 05:14:41;;;;;;;76.82;31.75;;;;;;;;;;5000724;28;20042;-56
2023/12/15 05:17:07;;;;;;;81.93;34.83;;;;;;;;;;4995082;28;20501;-58
2023/12/15 05:19:33;;;;;;;82.90;34.50;;;;;;;;;;4999630;28;20037;-56
2023/12/15 05:21:59;;;;;;;85.00;32.60;;;;;;;;;;5000897;28;20045;-57
2023/12/15 05:24:25;;;;;;;83.18;34.08;;;;;;;;;;5000027;28;20050;-58
2023/12/15 05:26:51;;;;;;;81.13;33.67;;;;;;;;;;4994032;28;20089;-58
2023/12/15 05:29:17;;;;;;;82.65;32.83;;;;;;;;;;4996832;28;20120;-58
2023/12/15 05:31:46;;;;;;;80.75;33.85;;;;;;;;;;4994490;28;20124;-57
2023/12/15 05:34:11;;;;;;;88.13;33.03;;;;;;;;;;4992257;28;20037;-58
2023/12/15 05:36:39;;;;;;;91.40;32.97;;;;;;;;;;5000289;28;20018;-56
2023/12/15 05:39:05;;;;;;;86.30;31.95;;;;;;;;;;5000102;28;20554;-58
2023/12/15 05:41:31;;;;;;;86.40;33.42;;;;;;;;;;4995427;28;20117;-58
2023/12/15 05:43:57;;;;;;;87.20;32.15;;;;;;;;;;5002531;28;20034;-58
2023/12/15 05:46:23;;;;;;;88.35;31.15;;;;;;;;;;4991099;28;20525;-57
2023/12/15 05:48:49;;;;;;;95.55;34.88;;;;;;;;;;4997376;28;20575;-58
2023/12/15 05:51:15;;;;;;;91.60;32.40;;;;;;;;;;4996002;28;20038;-57
2023/12/15 05:53:42;;;;;;;93.57;33.80;;;;;;;;;;4999552;28;20060;-56
2023/12/15 05:56:08;;;;;;;93.78;33.35;;;;;;;;;;5000352;28;20076;-55
2023/12/15 05:58:34;;;;;;;93.32;33.50;;;;;;;;;;4997333;28;20065;-56
2023/12/15 06:01:00;;;;;;;81.50;30.70;;;;;;;;;;5000455;28;20069;-55
2023/12/15 06:03:26;;;;;;;81.50;30.80;;;;;;;;;;4994823;28;20045;-58
2023/12/15 06:05:52;;;;;;;100.78;32.10;;;;;;;;;;5000942;28;20417;-59
2023/12/15 06:08:18;;;;;;;87.15;31.10;;;;;;;;;;4996652;28;20650;-58
2023/12/15 06:10:44;;;;;;;86.80;30.65;;;;;;;;;;4997771;28;20390;-57
2023/12/15 06:13:10;;;;;;;91.43;30.52;;;;;;;;;;4992439;28;20041;-58
2023/12/15 06:15:36;;;;;;;94.82;30.25;;;;;;;;;;4995686;28;20397;-58
2023/12/15 06:18:04;;;;;;;84.03;29.73;;;;;;;;;;4994611;28;20038;-57
2023/12/15 06:20:30;;;;;;;87.43;29.77;;;;;;;;;;4998149;28;20177;-58
2023/12/15 06:22:57;;;;;;;93.30;31.67;;;;;;;;;;5000128;28;20723;-55
2023/12/15 06:25:23;;;;;;;90.07;31.08;;;;;;;;;;4995005;28;20328;-55
2023/12/15 06:27:49;;;;;;;105.80;31.05;;;;;;;;;;4996198;28;20233;-56
2023/12/15 06:30:15;;;;;;;96.13;31.00;;;;;;;;;;4993408;28;20588;-54
2023/12/15 06:32:42;;;;;;;139.60;57.70;;;;;;;;;;4997755;28;20386;-58
2023/12/15 06:35:07;;;;;;;92.75;31.20;;;;;;;;;;4995316;28;20049;-56
2023/12/15 06:37:33;;;;;;;92.13;30.25;;;;;;;;;;4996070;28;20031;-58
2023/12/15 06:39:59;;;;;;;92.47;32.08;;;;;;;;;;4997832;28;20691;-58
2023/12/15 06:42:25;;;;;;;100.28;32.75;;;;;;;;;;4993020;28;20176;-59
2023/12/15 06:44:51;;;;;;;95.50;33.00;;;;;;;;;;4995748;28;20042;-58
2023/12/15 06:47:17;;;;;;;107.60;31.88;;;;;;;;;;4995329;28;20049;-58
2023/12/15 06:49:43;;;;;;;95.93;33.10;;;;;;;;;;4998578;28;20034;-58
2023/12/15 06:52:09;;;;;;;96.38;32.35;;;;;;;;;;4997589;28;20022;-59
2023/12/15 06:54:39;;;;;;;106.15;31.70;;;;;;;;;;4997429;28;20038;-58
2023/12/15 06:57:06;;;;;;;110.40;32.10;;;;;;;;;;4994183;28;20482;-58
2023/12/15 06:59:32;;;;;;;101.60;33.75;;;;;;;;;;4993489;28;20517;-58
2023/12/15 07:01:58;;;;;;;108.38;31.25;;;;;;;;;;4997803;28;20037;-56
2023/12/15 07:04:24;;;;;;;102.95;31.88;;;;;;;;;;4994886;28;20053;-55
2023/12/15 07:06:49;;;;;;;109.50;32.22;;;;;;;;;;4997532;28;20096;-56
2023/12/15 07:09:15;;;;;;;108.75;33.17;;;;;;;;;;4991980;28;20539;-55
2023/12/15 07:11:41;;;;;;;114.20;34.65;;;;;;;;;;4993947;28;20638;-55
2023/12/15 07:14:07;;;;;;;105.60;33.72;;;;;;;;;;4998381;28;20048;-58
2023/12/15 07:16:33;;;;;;;113.10;33.53;;;;;;;;;;4990644;28;20125;-58
2023/12/15 07:18:59;;;;;;;122.75;33.92;;;;;;;;;;4999511;28;20041;-58
2023/12/15 07:21:26;;;;;;;120.70;34.60;;;;;;;;;;4989583;28;20065;-57
2023/12/15 07:23:52;;;;;;;118.88;34.28;;;;;;;;;;4996734;28;20485;-58
2023/12/15 07:26:18;;;;;;;114.55;33.78;;;;;;;;;;4993850;28;20088;-56
2023/12/15 07:28:44;;;;;;;110.03;33.28;;;;;;;;;;4994846;28;20077;-58
2023/12/15 07:31:10;;;;;;;108.22;34.22;;;;;;;;;;4997012;28;20033;-59
2023/12/15 07:33:36;;;;;;;115.97;34.00;;;;;;;;;;4998780;28;20046;-58
2023/12/15 07:36:02;;;;;;;116.30;34.60;;;;;;;;;;4997521;28;20054;-55
2023/12/15 07:38:27;;;;;;;120.07;35.22;;;8.00;99.90;;;;;;4997821;28;20394;-59
2023/12/15 07:40:54;;;;;;;130.13;35.85;;;8.30;99.90;;;;;;4996035;28;20069;-58
2023/12/15 07:43:20;;;;;;;134.27;36.08;;;8.30;99.90;;;;;;4988862;28;20091;-56
2023/12/15 07:45:46;;;;;;;129.05;35.90;;;8.20;99.90;;;;;;4991802;28;20050;-55
2023/12/15 07:48:13;;;;;;;141.27;36.55;;;8.20;99.90;;;;;;4995434;28;20042;-56
2023/12/15 07:50:39;;;;;;;130.60;37.53;;;;;;;;;;4993484;28;20624;-55
2023/12/15 07:53:07;;;;;;;138.85;38.60;;;;;;;;;;4994439;28;20034;-58
2023/12/15 07:55:32;;;;;;;77.88;25.13;;;8.30;99.90;;;;;;4995985;28;20239;-58
2023/12/15 07:57:58;;;;;;;69.78;18.50;;;;;;;;;;4989483;28;20060;-59
2023/12/15 08:00:24;;;;;;;132.60;37.58;;;8.00;99.90;;;;;;4996512;28;20030;-59
2023/12/15 08:02:51;;;;;;;133.02;37.05;;;;;;;;;;4992726;28;20409;-57
2023/12/15 08:05:18;;;;;;;126.03;36.45;;;;;;;;;;4992831;28;20544;-59
2023/12/15 08:07:45;;;;;;;129.70;37.03;;;;;;;;;;4989260;28;20042;-59
2023/12/15 08:10:10;;;;;;;127.32;36.47;;;8.10;99.90;;;;;;4978799;28;20058;-59
2023/12/15 08:12:36;;;;;;;125.25;35.85;;;8.00;99.90;;;;;;4993642;28;20133;-59
2023/12/15 08:15:04;;;;;;;145.75;38.17;;;8.20;99.90;;;;;;4995672;28;20018;-59
2023/12/15 08:17:30;;;;;;;139.48;37.95;;;;;;;;;;4998193;28;20038;-58
2023/12/15 08:19:56;;;;;;;137.65;36.85;;;;;;;;;;4994195;28;20030;-59
2023/12/15 08:22:22;;;;;;;130.07;35.83;;;;;;;;;;4992742;28;20517;-56
2023/12/15 08:24:48;;;;;;;133.35;39.45;;;;;;;;;;4995811;28;20030;-56
2023/12/15 08:27:16;;;;;;;132.00;36.80;;;;;;;;;;4992728;28;20141;-57
2023/12/15 08:29:42;;;;;;;138.70;37.80;;;;;;;;;;4992737;28;20106;-56
2023/12/15 08:32:08;;;;;;;124.15;36.25;;;;;;;;;;4977872;28;20532;-55
2023/12/15 08:34:34;;;;;;;128.63;37.35;;;;;;;;;;4996480;28;20030;-57
2023/12/15 08:37:00;;;;;;;134.02;37.63;;;;;;;;;;4993501;28;20038;-56
2023/12/15 08:39:26;;;;;;;130.90;37.53;;;;;;;;;;4991695;28;20473;-55
2023/12/15 08:41:52;;;;;;;121.20;36.30;;;;;;;;;;4993790;28;20042;-55
2023/12/15 08:44:18;;;;;;;173.02;58.17;;;;;;;;;;4992550;28;20029;-56
2023/12/15 08:46:44;;;;;;;146.65;40.40;;;;;;;;;;4993985;28;20124;-56
2023/12/15 08:49:10;;;;;;;145.02;38.50;;;;;;;;;;4994147;28;20048;-56
2023/12/15 08:51:36;;;;;;;142.43;38.78;;;;;;;;;;4998516;28;20074;-56
2023/12/15 08:54:02;;;;;;;135.50;39.30;;;;;;;;;;4998774;28;20033;-57
2023/12/15 08:56:28;;;;;;;146.88;39.10;;;;;;;;;;4998097;28;20129;-56
2023/12/15 08:58:55;;;;;;;140.07;38.55;;;;;;;;;;4996150;28;20037;-56
2023/12/15 09:01:21;;;;;;;142.75;38.47;;;;;;;;;;4997082;28;20081;-55
2023/12/15 09:03:47;;;;;;;148.48;39.30;;;;;;;;;;4998290;28;20049;-58
2023/12/15 09:06:14;;;;;;;152.77;38.28;;;;;;;;;;4995193;28;20042;-58
2023/12/15 09:08:40;;;;;;;146.55;38.83;;;;;;;;;;4993337;28;20115;-59
2023/12/15 09:11:07;;;;;;;150.25;39.92;;;;;;;;;;4991580;28;20459;-56
2023/12/15 09:13:34;;;;;;;144.93;40.17;;;;;;;;;;4995970;28;20034;-56
2023/12/15 09:16:00;;;;;;;154.73;40.22;;;;;;;;;;4998138;28;20038;-57
2023/12/15 09:18:26;;;;;;;147.32;39.95;;;;;;;;;;4993036;28;20049;-58
2023/12/15 09:20:51;;;;;;;152.32;41.20;;;;;;;;;;4998927;28;20046;-58
2023/12/15 09:23:19;;;;;;;144.90;41.25;;;;;;;;;;4995999;28;20041;-58
2023/12/15 09:25:47;;;;;;;137.95;39.53;;;;;;;;;;4997752;28;20044;-57
2023/12/15 09:28:13;;;;;;;145.73;41.38;;;;;;;;;;4995240;28;20237;-59
2023/12/15 09:30:39;;;;;;;152.30;42.47;;;;;;;;;;4997898;28;20042;-59
2023/12/15 09:33:05;;;;;;;152.13;40.92;;;;;;;;;;4997320;28;20496;-57
2023/12/15 09:35:31;;;;;;;157.52;43.35;;;;;;;;;;4999985;28;20034;-56
2023/12/15 09:37:57;;;;;;;138.02;41.50;;;;;;;;;;4997440;28;20625;-55
2023/12/15 09:40:23;;;;;;;140.60;41.08;;;;;;;;;;4996763;28;20145;-56
2023/12/15 09:42:50;;;;;;;148.00;42.28;;;;;;;;;;4983516;28;20465;-57
2023/12/15 09:45:17;;;;;;;141.27;41.25;;;;;;;;;;4994678;28;20579;-56
2023/12/15 09:47:45;;;;;;;142.93;42.35;;;;;;;;;;4995632;28;20050;-56
2023/12/15 09:50:12;;;;;;;141.77;41.05;;;;;;;;;;4997091;28;20034;-56
2023/12/15 09:52:42;;;;;;;141.52;41.58;;;;;;;;;;4994308;28;20037;-57
2023/12/15 09:55:09;;;;;;;142.20;41.75;;;;;;;;;;4998210;28;20494;-56
2023/12/15 09:57:35;;;;;;;146.85;44.53;;;;;;;;;;4995813;28;20455;-56
2023/12/15 10:00:01;;;;;;;138.05;41.90;;;;;;;;;;4994231;28;20026;-54
2023/12/15 10:02:27;;;;;;;160.02;44.63;;;;;;;;;;4995481;28;20034;-56
2023/12/15 10:04:53;;;;;;;157.57;43.80;;;;;;;;;;4996730;28;20041;-55
2023/12/15 10:07:19;;;;;;;145.70;43.70;;;;;;;;;;4992865;28;20541;-56
2023/12/15 10:09:45;;;;;;;163.15;45.78;;;;;;;;;;4996536;28;20546;-55
2023/12/15 10:12:11;;;;;;;131.30;41.45;;;;;;;;;;4994951;28;20111;-58
2023/12/15 10:14:38;;;;;;;118.20;39.13;;;;;;;;;;4996286;28;20034;-58
2023/12/15 10:17:10;;;;;;;139.77;41.58;;;;;;;;;;4997123;28;20026;-59
2023/12/15 10:19:37;;;;;;;152.43;43.72;;;;;;;;;;4998732;28;20482;-56
2023/12/15 10:22:03;;;;;;;124.20;40.03;;;;;;;;;;4996131;28;20034;-57
2023/12/15 10:24:29;;;;;;;158.43;44.17;;;;;;;;;;4995192;28;20026;-56
2023/12/15 10:26:55;;;;;;;150.65;45.88;;;;;;;;;;4998363;28;20030;-56
2023/12/15 10:29:24;;;;;;;163.52;44.88;;;;;;;;;;4995134;28;20042;-55
2023/12/15 10:31:51;;;;;;;160.02;45.40;;;;;;;;;;4999013;28;20623;-55
2023/12/15 10:34:17;;;;;;;152.63;45.55;;;;;;;;;;4997571;28;20030;-56
2023/12/15 10:36:47;;;;;;;152.13;43.33;;;;;;;;;;4996627;28;20045;-57
2023/12/15 10:39:14;;;;;;;132.80;42.20;;;;;;;;;;4994091;28;20068;-56
2023/12/15 10:41:40;;;;;;;148.32;44.45;;;;;;;;;;4995883;28;20041;-56
2023/12/15 10:44:13;;;;;;;145.32;43.72;;;;;;;;;;4994485;28;20034;-56
2023/12/15 10:46:43;;;;;;;162.95;46.40;;;;;;;;;;4994921;28;20042;-57
2023/12/15 10:49:09;;;;;;;150.60;44.13;;;;;;;;;;4997657;28;20045;-55
2023/12/15 10:51:38;;;;;;;158.63;44.25;;;;;;;;;;4996983;28;20128;-57
2023/12/15 10:54:05;;;;;;;160.15;46.38;;;;;;;;;;4995399;28;20311;-56
2023/12/15 10:56:31;;;;;;;148.98;44.50;;;;;;;;;;5000018;28;20493;-56
2023/12/15 10:58:59;;;;;;;148.82;43.25;;;;;;;;;;4995039;28;20044;-56
2023/12/15 11:01:27;;;;;;;156.88;44.50;;;;;;;;;;4996140;28;20030;-57
2023/12/15 11:03:53;;;;;;;139.52;44.97;;;;;;;;;;4995050;28;20088;-55
2023/12/15 11:06:28;;;;;;;148.30;43.95;;;;;;;;;;4997343;28;20042;-55
2023/12/15 11:08:59;;;;;;;138.52;44.83;;;;;;;;;;4994625;28;20041;-56
2023/12/15 11:11:25;;;;;;;146.13;42.90;;;;;;;;;;4999630;28;20037;-57
2023/12/15 11:14:00;;;;;;;147.93;45.05;;;;;;;;;;4995957;28;20068;-56
2023/12/15 11:16:28;;;;;;;156.00;45.60;;;;;;;;;;4995412;28;20079;-55
2023/12/15 11:18:55;;;;;;;151.75;45.53;;;;;;;;;;4996742;28;20274;-56
2023/12/15 11:21:21;;;;;;;153.80;46.17;;;;;;;;;;4998080;28;20077;-57
2023/12/15 11:23:50;;;;;;;156.85;46.38;;;;;;;;;;4996093;28;20509;-58
2023/12/15 11:26:26;;;;;;;152.80;45.13;;;;;;;;;;4995067;28;20034;-57
2023/12/15 11:28:52;;;;;;;160.70;45.58;;;;;;;;;;4992035;28;20514;-59
2023/12/15 11:31:22;;;;;;;154.68;45.80;;;;;;;;;;4994471;28;20482;-60
2023/12/15 11:33:49;;;;;;;147.82;45.28;;;;;;;;;;4994277;28;20154;-59
2023/12/15 11:36:16;;;;;;;157.63;45.92;;;;;;;;;;4996155;28;20398;-58
2023/12/15 11:38:43;;;;;;;144.73;45.22;;;;;;;;;;4995512;28;20069;-59
2023/12/15 11:41:10;;;;;;;145.95;45.97;;;;;;;;;;4995144;28;20125;-59
2023/12/15 11:43:36;;;;;;;144.18;44.67;;;;;;;;;;4993942;28;20112;-57
2023/12/15 11:46:05;;;;;;;143.60;43.03;;;;;;;;;;4991682;28;20440;-57
2023/12/15 11:48:34;;;;;;;142.88;45.47;;;;;;;;;;4995458;28;20087;-56
2023/12/15 11:51:00;;;;;;;139.80;43.63;;;;;;;;;;4997761;28;20073;-56
2023/12/15 11:53:26;;;;;;;142.38;43.50;;;;;;;;;;4997656;28;20046;-57
2023/12/15 11:55:52;;;;;;;151.50;45.05;;;;;;;;;;4995840;28;20716;-57
2023/12/15 11:58:19;;;;;;;145.95;44.80;;;;;;;;;;4995054;28;20421;-56
2023/12/15 12:00:45;;;;;;;129.65;43.03;;;;;;;;;;4994642;28;20042;-56
2023/12/15 12:03:15;;;;;;;130.98;44.53;;;;;;;;;;4992616;28;20121;-57
2023/12/15 12:05:42;;;;;;;126.85;42.45;;;;;;;;;;4989977;28;20026;-57
2023/12/15 12:08:09;;;;;;;129.77;44.72;;;;;;;;;;4994157;28;20034;-57
2023/12/15 12:10:37;;;;;;;141.27;43.20;;;;;;;;;;4991426;28;20228;-57
2023/12/15 12:13:04;;;;;;;142.50;45.83;;;;;;;;;;4995249;28;20122;-57
2023/12/15 12:15:30;;;;;;;131.52;42.60;;;;;;;;;;4995463;28;20092;-57
2023/12/15 12:17:57;;;;;;;145.85;44.92;;;;;;;;;;4997441;28;20232;-57
2023/12/15 12:20:27;;;;;;;133.25;42.33;;;;;;;;;;4992365;28;20124;-55
2023/12/15 12:22:53;;;;;;;145.45;44.28;;;;;;;;;;4993627;28;20045;-59
2023/12/15 12:25:19;;;;;;;135.65;42.38;;;;;;;;;;4978124;28;20043;-59
2023/12/15 12:27:45;;;;;;;132.82;43.35;;;;;;;;;;4998471;28;20045;-58
2023/12/15 12:30:15;;;;;;;140.48;43.53;;;;;;;;;;4997084;28;20524;-57
2023/12/15 12:32:42;;;;;;;130.88;43.95;;;;;;;;;;4997148;28;20137;-59
2023/12/15 12:35:08;;;;;;;138.90;42.95;;;;;;;;;;4997851;28;20029;-59
2023/12/15 12:37:34;;;;;;;140.13;43.50;;;;;;;;;;4998144;28;20056;-59
2023/12/15 12:40:03;;;;;;;131.88;42.47;;;;;;;;;;5000605;28;20774;-59
2023/12/15 12:42:29;;;;;;;132.70;42.83;;;;;;;;;;4999473;28;20117;-56
2023/12/15 12:44:55;;;;;;;117.47;41.78;;;;;;;;;;4998587;28;20129;-55
2023/12/15 12:47:21;;;;;;;136.93;43.72;;;;;;;;;;5000270;28;20054;-55
2023/12/15 12:49:47;;;;;;;120.28;40.53;;;;;;;;;;5004165;28;20131;-56
2023/12/15 12:52:13;;;;;;;128.13;43.08;;;;;;;;;;5002587;28;20397;-56
2023/12/15 12:54:40;;;;;;;138.32;44.40;;;;;;;;;;4999532;28;20164;-56
2023/12/15 12:57:07;;;;;;;131.73;43.05;;;;;;;;;;5001294;28;20476;-55
2023/12/15 12:59:33;;;;;;;120.65;44.45;;;;;;;;;;5005590;28;20155;-56
2023/12/15 13:02:00;;;;;;;130.93;45.13;;;;;;;;;;5004040;28;20044;-55
2023/12/15 13:04:26;;;;;;;129.50;43.33;;;;;;;;;;4996963;28;20440;-56
2023/12/15 13:06:55;;;;;;;120.60;44.92;;;;;;;;;;5006223;28;20036;-55
2023/12/15 13:09:21;;;;;;;113.07;42.15;;;;;;;;;;5001108;28;20604;-56
2023/12/15 13:11:48;;;;;;;120.55;42.65;;;;;;;;;;4986044;28;20482;-56
2023/12/15 13:14:15;;;;;;;114.60;43.10;;;;;;;;;;4996954;28;20049;-56
2023/12/15 13:16:41;;;;;;;122.85;44.67;;;;;;;;;;5001299;28;20389;-55
2023/12/15 13:19:07;;;;;;;110.07;41.78;;;;;;;;;;4998718;28;20038;-55
2023/12/15 13:21:33;;;;;;;111.07;43.08;;;;;;;;;;5001674;28;20065;-56
2023/12/15 13:23:59;;;;;;;115.45;42.45;;;;;;;;;;4999767;28;20042;-55
2023/12/15 13:26:25;;;;;;;103.00;42.40;;;;;;;;;;4998981;28;20383;-56
2023/12/15 13:28:53;;;;;;;107.43;41.63;;;;;;;;;;5005199;28;20328;-57
2023/12/15 13:31:19;;;;;;;114.82;42.83;;;;;;;;;;5003997;28;20129;-56
2023/12/15 13:33:48;;;;;;;116.60;42.88;;;;;;;;;;5004812;28;20169;-59
2023/12/15 13:36:15;;;;;;;108.78;43.33;;;;;;;;;;5000679;28;20033;-57
2023/12/15 13:38:42;;;;;;;111.72;42.83;;;;;;;;;;5006181;28;20040;-57